Time;durP1;ratioP1;P1;durP2;ratioP2;P2;SDS_P1;SDS_P2;PMS_P1;PMS_P2;Temp;Humidity;BMP_temperature;BMP_pressure;BME280_temperature;BME280_humidity;BME280_pressure;Samples;Min_cycle;Max_cycle;Signal;HPM_P1;HPM_P2
2022/01/30 00:00:55;;;;;;;2.30;0.90;;;;;;;-145.69;100.00;73239.47;5074814;28;20203;-75
2022/01/30 00:03:21;;;;;;;0.80;0.80;;;;;;;-145.69;100.00;73241.44;5074680;28;20198;-76
2022/01/30 00:05:48;;;;;;;1.03;0.93;;;;;;;-145.69;100.00;73243.44;5074557;28;20230;-76
2022/01/30 00:08:16;;;;;;;1.10;0.93;;;;;;;-145.69;100.00;73239.47;5073952;28;20244;-76
2022/01/30 00:10:43;;;;;;;1.30;0.90;;;;;;;-145.69;100.00;73245.44;5074001;28;20558;-76
2022/01/30 00:13:13;;;;;;;1.20;0.90;;;;;;;-145.69;100.00;73241.44;5073787;28;20199;-76
2022/01/30 00:15:43;;;;;;;1.77;1.00;;;;;;;-145.69;100.00;73245.44;5074205;28;20219;-76
2022/01/30 00:18:21;;;;;;;1.30;1.20;;;;;;;-145.69;100.00;73247.41;5074283;28;20212;-76
2022/01/30 00:21:00;;;;;;;1.60;1.23;;;;;;;-145.69;100.00;73257.38;5073852;28;20198;-77
2022/01/30 00:23:30;;;;;;;2.03;1.37;;;;;;;-145.69;100.00;73257.38;5073913;28;20301;-76
2022/01/30 00:25:58;;;;;;;2.57;1.77;;;;;;;-145.69;100.00;73247.41;5073915;28;20211;-76
2022/01/30 00:28:26;;;;;;;2.20;1.83;;;;;;;-145.69;100.00;73247.41;5074032;28;20202;-76
2022/01/30 00:30:53;;;;;;;1.93;1.70;;;;;;;-145.69;100.00;73237.47;5073929;28;20203;-76
2022/01/30 00:33:20;;;;;;;3.40;2.20;;;;;;;-145.69;100.00;73237.47;5073453;28;20658;-76
2022/01/30 00:35:46;;;;;;;3.00;1.93;;;;;;;-145.69;100.00;73239.47;5073750;28;20288;-76
2022/01/30 00:38:18;;;;;;;2.13;1.90;;;;;;;-145.69;100.00;73231.50;5073561;28;20205;-76
2022/01/30 00:40:47;;;;;;;3.30;2.13;;;;;;;-145.69;100.00;73241.44;5073927;28;20207;-76
2022/01/30 00:43:14;;;;;;;2.40;1.90;;;;;;;-145.69;100.00;73227.50;5054060;28;20203;-76
2022/01/30 00:45:41;;;;;;;2.03;1.33;;;;;;;-145.69;100.00;73233.50;5067302;28;20199;-76
2022/01/30 00:48:08;;;;;;;1.97;1.53;;;;;;;-145.69;100.00;73233.50;5073316;28;20210;-76
2022/01/30 00:50:35;;;;;;;2.67;1.23;;;;;;;-145.69;100.00;73227.50;5073392;28;20199;-75
2022/01/30 00:53:02;;;;;;;2.83;1.50;;;;;;;-145.69;100.00;73229.50;5073312;28;20562;-76
2022/01/30 00:55:30;;;;;;;1.70;1.23;;;;;;;-145.69;100.00;73233.50;5073527;28;20199;-76
2022/01/30 00:57:59;;;;;;;2.00;1.43;;;;;;;-145.69;100.00;73231.50;5073107;28;20248;-76
2022/01/30 01:00:27;;;;;;;1.80;1.30;;;;;;;-145.69;100.00;73233.50;5073282;28;20198;-76
2022/01/30 01:02:54;;;;;;;3.53;1.47;;;;;;;-145.69;100.00;73223.53;5073291;28;20206;-76
2022/01/30 01:05:21;;;;;;;1.67;1.20;;;;;;;-145.69;100.00;73217.56;5073232;28;20241;-76
2022/01/30 01:07:50;;;;;;;2.90;1.50;;;;;;;-145.69;100.00;73205.63;5073383;28;20226;-76
2022/01/30 01:10:28;;;;;;;2.30;1.33;;;;;;;-145.69;100.00;73205.63;5073131;28;20202;-76
2022/01/30 01:23:57;;;;;;;2.10;1.33;;;;;;;-145.69;100.00;73191.69;5072869;28;20689;-76
2022/01/30 01:26:25;;;;;;;2.40;1.10;;;;;;;-145.69;100.00;73193.66;5073121;28;20229;-76
2022/01/30 01:28:52;;;;;;;1.73;1.30;;;;;;;-145.69;100.00;73201.63;5073074;28;20205;-76
2022/01/30 01:31:20;;;;;;;1.20;0.87;;;;;;;-145.69;100.00;73193.66;5073027;28;20413;-76
2022/01/30 01:34:02;;;;;;;2.13;1.00;;;;;;;-145.69;100.00;73187.69;5072765;28;20203;-76
2022/01/30 01:36:28;;;;;;;1.53;1.10;;;;;;;-145.69;100.00;73181.72;5072757;28;20300;-75
2022/01/30 01:38:55;;;;;;;1.20;1.10;;;;;;;-145.69;100.00;73177.75;5072991;28;20206;-76
2022/01/30 01:41:23;;;;;;;2.40;1.00;;;;;;;-145.69;100.00;73179.75;5072833;28;20646;-76
2022/01/30 01:43:51;;;;;;;1.23;0.80;;;;;;;-145.69;100.00;73177.75;5072840;28;20233;-76
2022/01/30 01:46:23;;;;;;;1.90;1.03;;;;;;;-145.69;100.00;73177.75;5072365;28;20288;-76
2022/01/30 01:48:52;;;;;;;0.83;0.83;;;;;;;-145.69;100.00;73177.75;5072675;28;20673;-76
2022/01/30 01:51:23;;;;;;;2.87;1.17;;;;;;;-145.69;100.00;73183.72;5072849;28;20376;-76
2022/01/30 01:53:51;;;;;;;1.57;1.10;;;;;;;-145.69;100.00;73173.75;5068762;28;20202;-75
2022/01/30 01:56:19;;;;;;;0.90;0.80;;;;;;;-145.69;100.00;73165.81;5052864;28;20234;-75
2022/01/30 01:58:46;;;;;;;0.90;0.90;;;;;;;-145.69;100.00;73161.81;5069927;28;20760;-75
2022/01/30 02:01:13;;;;;;;2.53;0.80;;;;;;;-145.69;100.00;73157.84;5075087;28;20202;-76
2022/01/30 02:03:43;;;;;;;0.90;0.80;;;;;;;-145.69;100.00;73139.91;5076544;28;20232;-76
2022/01/30 02:06:13;;;;;;;1.30;0.87;;;;;;;-145.69;100.00;73137.94;5076819;28;20199;-76
2022/01/30 02:08:42;;;;;;;0.70;0.70;;;;;;;-145.69;100.00;73137.94;5076854;28;20293;-76
2022/01/30 02:11:12;;;;;;;1.00;0.80;;;;;;;-145.69;100.00;73120.00;5076202;28;20199;-76
2022/01/30 02:14:00;;;;;;;1.33;0.90;;;;;;;-145.69;100.00;73110.06;5076077;28;20751;-76
2022/01/30 02:24:55;;;;;;;0.70;0.70;;;;;;;-145.69;100.00;73131.97;5076360;28;20287;-76
2022/01/30 02:27:25;;;;;;;1.10;0.80;;;;;;;-145.69;100.00;73129.97;5075820;28;20229;-76
2022/01/30 02:29:52;;;;;;;0.80;0.80;;;;;;;-145.69;100.00;73118.03;5076160;28;20209;-76
2022/01/30 02:32:18;;;;;;;0.80;0.80;;;;;;;-145.69;100.00;73116.03;5075987;28;20195;-76
2022/01/30 02:34:45;;;;;;;1.00;0.90;;;;;;;-145.69;100.00;73110.06;5076029;28;20347;-77
2022/01/30 02:37:14;;;;;;;1.00;0.90;;;;;;;-145.69;100.00;73108.06;5076081;28;20333;-76
2022/01/30 02:39:40;;;;;;;0.60;0.60;;;;;;;-145.69;100.00;73120.00;5075671;28;20203;-76
2022/01/30 02:42:12;;;;;;;0.70;0.70;;;;;;;-145.69;100.00;73126.00;5076125;28;20203;-76
2022/01/30 02:44:43;;;;;;;0.67;0.67;;;;;;;-145.69;100.00;73114.03;5075853;28;20565;-76
2022/01/30 02:47:22;;;;;;;0.67;0.67;;;;;;;-145.69;100.00;73120.00;5075825;28;20199;-76
2022/01/30 02:50:09;;;;;;;0.80;0.80;;;;;;;-145.69;100.00;73120.00;5076012;28;20198;-77
2022/01/30 02:52:39;;;;;;;0.97;0.80;;;;;;;-145.69;100.00;73118.03;5075492;28;20195;-76
2022/01/30 02:55:07;;;;;;;0.90;0.70;;;;;;;-145.69;100.00;73114.03;5075823;28;20256;-77
2022/01/30 02:57:35;;;;;;;0.70;0.70;;;;;;;-145.69;100.00;73114.03;5075600;28;20231;-76
2022/01/30 03:00:02;;;;;;;1.83;0.97;;;;;;;-145.69;100.00;73122.00;5075830;28;20195;-77
2022/01/30 03:02:28;;;;;;;0.80;0.80;;;;;;;-145.69;100.00;73126.00;5075789;28;20225;-76
2022/01/30 03:04:55;;;;;;;1.23;0.73;;;;;;;-145.69;100.00;73114.03;5075373;28;20198;-76
2022/01/30 03:07:31;;;;;;;1.17;0.70;;;;;;;-145.69;100.00;73108.06;5075607;28;20286;-76
2022/01/30 03:09:58;;;;;;;0.80;0.80;;;;;;;-145.69;100.00;73116.03;5075074;28;20206;-76
2022/01/30 03:12:27;;;;;;;1.30;1.00;;;;;;;-145.69;100.00;73116.03;5074132;28;20213;-76
2022/01/30 03:14:55;;;;;;;2.20;0.90;;;;;;;-145.69;100.00;73118.03;5074951;28;20230;-76
2022/01/30 03:17:23;;;;;;;1.60;0.90;;;;;;;-145.69;100.00;73114.03;5075172;28;20280;-76
2022/01/30 03:19:53;;;;;;;0.80;0.80;;;;;;;-145.69;100.00;73106.09;5075252;28;20198;-76
2022/01/30 03:22:20;;;;;;;0.83;0.70;;;;;;;-145.69;100.00;73106.09;5075203;28;20336;-76
2022/01/30 03:24:46;;;;;;;2.13;0.80;;;;;;;-145.69;100.00;73098.13;5075047;28;20668;-76
2022/01/30 03:27:14;;;;;;;0.83;0.83;;;;;;;-145.69;100.00;73102.09;5074898;28;20194;-76
2022/01/30 03:29:48;;;;;;;1.50;1.00;;;;;;;-145.69;100.00;73102.09;5074598;28;20546;-76
2022/01/30 03:32:22;;;;;;;0.73;0.73;;;;;;;-145.69;100.00;73100.09;5075154;28;20216;-76
2022/01/30 03:34:49;;;;;;;0.60;0.60;;;;;;;-145.69;100.00;73098.13;5075036;28;20208;-76
2022/01/30 03:37:15;;;;;;;1.80;0.90;;;;;;;-145.69;100.00;73102.09;5075305;28;20241;-76
2022/01/30 03:39:44;;;;;;;1.43;0.93;;;;;;;-145.69;100.00;73106.09;5074880;28;20194;-76
2022/01/30 03:42:11;;;;;;;1.20;0.80;;;;;;;-145.69;100.00;73098.13;5074847;28;20672;-76
2022/01/30 03:44:42;;;;;;;1.73;0.80;;;;;;;-145.69;100.00;73098.13;5074903;28;20205;-76
2022/01/30 03:47:08;;;;;;;0.80;0.80;;;;;;;-145.69;100.00;73104.09;5074971;28;20291;-77
2022/01/30 03:49:36;;;;;;;0.80;0.80;;;;;;;-145.69;100.00;73090.16;5074703;28;20202;-77
2022/01/30 03:52:03;;;;;;;1.47;0.93;;;;;;;-145.69;100.00;73098.13;5074454;28;20199;-76
2022/01/30 03:54:30;;;;;;;1.07;0.70;;;;;;;-145.69;100.00;73102.09;5074744;28;20199;-76
2022/01/30 03:56:56;;;;;;;0.80;0.70;;;;;;;-145.69;100.00;73098.13;5072423;28;20219;-76
2022/01/30 03:59:34;;;;;;;0.73;0.70;;;;;;;-145.69;100.00;73104.09;5054814;28;20206;-76
2022/01/30 04:02:06;;;;;;;2.30;0.70;;;;;;;-145.69;100.00;73112.06;5056353;28;20195;-76
2022/01/30 04:04:41;;;;;;;1.13;0.70;;;;;;;-145.69;100.00;73110.06;5074536;28;20198;-77
2022/01/30 04:07:13;;;;;;;1.50;0.60;;;;;;;-145.69;100.00;73096.13;5074493;28;20206;-76
2022/01/30 04:09:44;;;;;;;2.27;0.60;;;;;;;-145.69;100.00;73106.09;5074095;28;20198;-76
2022/01/30 04:12:14;;;;;;;1.00;0.73;;;;;;;-145.69;100.00;73098.13;5074347;28;20202;-76
2022/01/30 04:14:42;;;;;;;0.70;0.70;;;;;;;-145.69;100.00;73112.06;5073501;28;20223;-76
2022/01/30 04:17:10;;;;;;;1.63;0.80;;;;;;;-145.69;100.00;73118.03;5074215;28;20226;-76
2022/01/30 04:19:38;;;;;;;0.50;0.50;;;;;;;-145.69;100.00;73129.97;5074093;28;20246;-76
2022/01/30 04:22:08;;;;;;;0.60;0.60;;;;;;;-145.69;100.00;73122.00;5074152;28;20207;-77
2022/01/30 04:24:37;;;;;;;0.70;0.67;;;;;;;-145.69;100.00;73124.00;5073678;28;20203;-76
2022/01/30 04:27:06;;;;;;;0.70;0.70;;;;;;;-145.69;100.00;73122.00;5073768;28;20629;-77
2022/01/30 04:29:33;;;;;;;0.83;0.70;;;;;;;-145.69;100.00;73126.00;5073864;28;20662;-76
2022/01/30 04:32:00;;;;;;;0.87;0.70;;;;;;;-145.69;100.00;73139.91;5073930;28;20221;-76
2022/01/30 04:34:32;;;;;;;1.00;0.70;;;;;;;-145.69;100.00;73145.91;5073870;28;20298;-76
2022/01/30 04:37:04;;;;;;;0.57;0.57;;;;;;;-145.69;100.00;73137.94;5073770;28;20269;-77
2022/01/30 04:40:14;;;;;;;2.73;0.70;;;;;;;-145.69;100.00;73145.91;5073563;28;20212;-76
2022/01/30 04:54:29;;;;;;;2.37;0.80;;;;;;;-145.69;100.00;73161.81;5073322;28;20672;-78
2022/01/30 04:56:56;;;;;;;0.77;0.77;;;;;;;-145.69;100.00;73169.78;5073119;28;20627;-76
2022/01/30 04:59:44;;;;;;;1.30;0.87;;;;;;;-145.69;100.00;73169.78;5073627;28;20206;-76
2022/01/30 05:02:43;;;;;;;1.20;0.80;;;;;;;-145.69;100.00;73177.75;5073117;28;20226;-77
2022/01/30 05:05:35;;;;;;;0.80;0.80;;;;;;;-145.69;100.00;73187.69;5073132;28;20282;-76
2022/01/30 05:08:05;;;;;;;1.17;1.00;;;;;;;-145.69;100.00;73185.72;5073450;28;20202;-76
2022/01/30 05:10:33;;;;;;;2.00;0.87;;;;;;;-145.69;100.00;73187.69;5073247;28;20202;-76
2022/01/30 05:13:16;;;;;;;1.03;0.90;;;;;;;-145.69;100.00;73185.72;5072838;28;20191;-77
2022/01/30 05:15:43;;;;;;;1.03;0.87;;;;;;;-145.69;100.00;73189.69;5073404;28;20589;-77
2022/01/30 05:18:18;;;;;;;1.27;1.10;;;;;;;-145.69;100.00;73189.69;5072940;28;20236;-76
2022/01/30 05:20:48;;;;;;;1.40;1.30;;;;;;;-145.69;100.00;73189.69;5073229;28;20194;-76
2022/01/30 05:23:16;;;;;;;1.20;1.00;;;;;;;-145.69;100.00;73187.69;5072915;28;20684;-76
2022/01/30 05:25:49;;;;;;;1.40;1.20;;;;;;;-145.69;100.00;73205.63;5072729;28;20556;-76
2022/01/30 05:28:17;;;;;;;2.40;1.33;;;;;;;-145.69;100.00;73205.63;5072752;28;20199;-76
2022/01/30 05:30:44;;;;;;;1.57;1.30;;;;;;;-145.69;100.00;73211.59;5073117;28;20225;-76
2022/01/30 05:33:11;;;;;;;3.07;1.30;;;;;;;-145.69;100.00;73223.53;5073110;28;20374;-76
2022/01/30 05:35:42;;;;;;;1.10;1.00;;;;;;;-145.69;100.00;73221.53;5072192;28;20218;-76
2022/01/30 05:38:09;;;;;;;1.80;1.30;;;;;;;-145.69;100.00;73223.53;5072605;28;20226;-77
2022/01/30 05:40:38;;;;;;;1.90;1.53;;;;;;;-145.69;100.00;73233.50;5072747;28;20206;-77
2022/01/30 05:43:09;;;;;;;1.63;1.53;;;;;;;-145.69;100.00;73225.53;5072963;28;20202;-78
2022/01/30 05:45:39;;;;;;;1.97;1.33;;;;;;;-145.69;100.00;73237.47;5072906;28;20252;-77
2022/01/30 05:48:10;;;;;;;2.60;1.47;;;;;;;-145.69;100.00;73237.47;5072667;28;20289;-78
2022/01/30 05:50:38;;;;;;;1.37;1.17;;;;;;;-145.69;100.00;73243.44;5052760;28;20257;-78
2022/01/30 05:53:07;;;;;;;1.63;1.53;;;;;;;-145.69;100.00;73245.44;5052864;28;20199;-77
2022/01/30 05:55:34;;;;;;;3.30;1.60;;;;;;;-145.69;100.00;73251.41;5055028;28;20235;-77
2022/01/30 05:58:00;;;;;;;1.63;1.50;;;;;;;-145.69;100.00;73253.41;5052543;28;20233;-77
2022/01/30 06:00:34;;;;;;;3.20;1.73;;;;;;;-145.69;100.00;73255.38;5052907;28;20203;-77
2022/01/30 06:03:02;;;;;;;1.47;1.37;;;;;;;-145.69;100.00;73261.34;5052711;28;20289;-77
2022/01/30 06:05:32;;;;;;;1.30;1.20;;;;;;;-145.69;100.00;73261.34;5053087;28;20200;-77
2022/01/30 06:08:10;;;;;;;2.90;1.70;;;;;;;-145.69;100.00;73265.34;5052718;28;20207;-77
2022/01/30 06:10:38;;;;;;;3.10;2.00;;;;;;;-145.69;100.00;73275.28;5067892;28;20198;-78
2022/01/30 06:13:07;;;;;;;1.97;1.50;;;;;;;-145.69;100.00;73287.25;5072392;28;20332;-77
2022/01/30 06:15:37;;;;;;;1.30;1.20;;;;;;;-145.69;100.00;73291.22;5072489;28;20202;-78
2022/01/30 06:18:05;;;;;;;1.80;1.30;;;;;;;-145.69;100.00;73299.19;5072247;28;20223;-78
2022/01/30 06:20:31;;;;;;;3.30;1.57;;;;;;;-145.69;100.00;73301.19;5072550;28;20285;-78
2022/01/30 06:23:01;;;;;;;1.67;1.40;;;;;;;-145.69;100.00;73301.19;5072513;28;20203;-78
2022/01/30 06:25:28;;;;;;;4.10;1.73;;;;;;;-145.69;100.00;73301.19;5072457;28;20198;-77
2022/01/30 06:27:57;;;;;;;2.50;1.20;;;;;;;-145.69;100.00;73307.16;5072244;28;20203;-77
2022/01/30 06:30:23;;;;;;;1.50;1.30;;;;;;;-145.69;100.00;73313.13;5072366;28;20202;-77
2022/01/30 06:32:54;;;;;;;1.60;1.40;;;;;;;-145.69;100.00;73317.09;5072492;28;20203;-77
2022/01/30 06:35:21;;;;;;;5.93;1.53;;;;;;;-145.69;100.00;73323.06;5072156;28;20199;-77
2022/01/30 06:37:53;;;;;;;3.50;1.47;;;;;;;-145.69;100.00;73323.06;5072037;28;20223;-77
2022/01/30 06:40:20;;;;;;;3.33;1.20;;;;;;;-145.69;100.00;73325.06;5052380;28;20198;-77
2022/01/30 06:42:49;;;;;;;1.77;1.30;;;;;;;-145.69;100.00;73329.03;5052064;28;20200;-77
2022/01/30 06:45:19;;;;;;;1.37;1.27;;;;;;;-145.69;100.00;73337.00;5052414;28;20249;-77
2022/01/30 06:47:47;;;;;;;4.63;1.60;;;;;;;-145.69;100.00;73335.03;5055232;28;20257;-77
2022/01/30 06:50:31;;;;;;;2.20;1.40;;;;;;;-145.69;100.00;73341.00;5061427;28;20245;-77
2022/01/30 06:52:57;;;;;;;3.47;1.33;;;;;;;-145.69;100.00;73342.97;5075540;28;20202;-77
2022/01/30 06:55:24;;;;;;;4.27;1.47;;;;;;;-145.69;100.00;73339.00;5076277;28;20207;-77
2022/01/30 06:57:53;;;;;;;2.10;1.40;;;;;;;-145.69;100.00;73341.00;5075946;28;20256;-77
2022/01/30 07:00:20;;;;;;;2.17;1.67;;;;;;;-145.69;100.00;73342.97;5075753;28;20253;-76
2022/01/30 07:02:51;;;;;;;1.70;1.60;;;;;;;-145.69;100.00;73346.97;5075329;28;20195;-77
2022/01/30 07:05:19;;;;;;;4.83;1.40;;;;;;;-145.69;100.00;73352.94;5075751;28;20223;-77
2022/01/30 07:07:47;;;;;;;4.20;2.43;;;;;;;-145.69;100.00;73344.97;5075684;28;20198;-77
2022/01/30 07:10:15;;;;;;;7.70;3.63;;;;;;;-145.69;100.00;73350.94;5075366;28;20685;-77
2022/01/30 07:12:46;;;;;;;7.90;4.07;;;;;;;-145.69;100.00;73348.97;5075303;28;20206;-77
2022/01/30 07:15:13;;;;;;;5.00;2.30;;;;;;;-145.69;100.00;73344.97;5075048;28;20254;-77
2022/01/30 07:17:39;;;;;;;2.50;2.00;;;;;;;-145.69;100.00;73354.94;5075358;28;20314;-76
2022/01/30 07:20:09;;;;;;;7.07;2.27;;;;;;;-145.69;100.00;73354.94;5075278;28;20195;-77
2022/01/30 07:22:38;;;;;;;4.93;2.47;;;;;;;-145.69;100.00;73364.88;5075492;28;20242;-76
2022/01/30 07:25:08;;;;;;;5.83;2.80;;;;;;;-145.69;100.00;73364.88;5075467;28;20230;-77
2022/01/30 07:27:38;;;;;;;6.57;3.13;;;;;;;-145.69;100.00;73366.88;5074809;28;20210;-77
2022/01/30 07:30:11;;;;;;;12.27;4.63;;;;;;;-145.69;100.00;73368.88;5075265;28;20205;-76
2022/01/30 07:32:39;;;;;;;5.40;3.20;;;;;;;-145.69;100.00;73368.88;5074950;28;20203;-76
2022/01/30 07:35:06;;;;;;;12.30;2.97;;;;;;;-145.69;100.00;73364.88;5074755;28;20680;-77
2022/01/30 07:37:36;;;;;;;7.93;2.93;;;;;;;-145.69;100.00;73358.91;5075015;28;20198;-77
2022/01/30 07:40:07;;;;;;;5.40;3.00;;;;;;;-145.69;100.00;73362.88;5075018;28;20245;-76
2022/01/30 07:42:36;;;;;;;8.33;3.60;;;;;;;-145.69;100.00;73364.88;5074895;28;20206;-77
2022/01/30 07:45:06;;;;;;;6.33;2.63;;;;;;;-145.69;100.00;73356.91;5074771;28;20195;-76
2022/01/30 07:47:34;;;;;;;4.63;2.60;;;;;;;-145.69;100.00;73360.91;5074533;28;20240;-76
2022/01/30 07:50:06;;;;;;;6.03;3.10;;;;;;;-145.69;100.00;73360.91;5075085;28;20198;-77
2022/01/30 07:52:35;;;;;;;10.17;3.37;;;;;;;-145.69;100.00;73360.91;5074865;28;20199;-77
2022/01/30 07:55:03;;;;;;;6.80;2.70;;;;;;;-145.69;100.00;73360.91;5071066;28;20195;-77
2022/01/30 07:57:32;;;;;;;10.73;3.33;;;;;;;-145.69;100.00;73356.91;5061957;28;20225;-76
2022/01/30 08:00:02;;;;;;;7.90;3.87;;;;;;;-145.69;100.00;73368.88;5074280;28;20657;-77
2022/01/30 08:02:34;;;;;;;9.57;4.07;;;;;;;-145.69;100.00;73364.88;5074340;28;20746;-77
2022/01/30 08:05:00;;;;;;;11.00;3.90;;;;;;;-145.69;100.00;73368.88;5074448;28;20650;-76
2022/01/30 08:07:31;;;;;;;14.60;3.87;;;;;;;-145.69;100.00;73364.88;5074470;28;20608;-76
2022/01/30 08:09:59;;;;;;;10.80;4.87;;;;;;;-145.69;100.00;73364.88;5074235;28;20202;-76
2022/01/30 08:12:29;;;;;;;9.63;3.07;;;;;;;-145.69;100.00;73362.88;5074249;28;20233;-76
2022/01/30 08:14:59;;;;;;;9.17;3.37;;;;;;;-145.69;100.00;73356.91;5074207;28;20242;-77
2022/01/30 08:17:31;;;;;;;8.40;3.00;;;;;;;-145.69;100.00;73356.91;5073564;28;20199;-77
2022/01/30 08:20:00;;;;;;;10.57;3.53;;;;;;;-145.69;100.00;73348.97;5073951;28;20673;-76
2022/01/30 08:22:30;;;;;;;7.07;4.03;;;;;;;-145.69;100.00;73348.97;5073844;28;20205;-76
2022/01/30 08:24:58;;;;;;;9.80;2.43;;;;;;;-145.69;100.00;73348.97;5073800;28;20203;-77
2022/01/30 08:27:28;;;;;;;9.73;2.70;;;;;;;-145.69;100.00;73362.88;5074225;28;20203;-78
2022/01/30 08:29:58;;;;;;;14.73;4.20;;;;;;;-145.69;100.00;73342.97;5074159;28;20202;-78
2022/01/30 08:32:25;;;;;;;12.50;4.67;;;;;;;-145.69;100.00;73333.03;5073982;28;20210;-77
2022/01/30 08:34:54;;;;;;;11.33;3.97;;;;;;;-145.69;100.00;73323.06;5073584;28;20199;-77
2022/01/30 08:37:21;;;;;;;10.60;3.10;;;;;;;-145.69;100.00;73337.00;5074246;28;20198;-77
2022/01/30 08:39:47;;;;;;;7.63;2.90;;;;;;;-145.69;100.00;73325.06;5073730;28;20287;-77
2022/01/30 08:42:14;;;;;;;8.27;3.37;;;;;;;-145.69;100.00;73325.06;5073423;28;20198;-77
2022/01/30 08:44:44;;;;;;;9.87;3.37;;;;;;;-145.69;100.00;73321.09;5073793;28;20233;-77
2022/01/30 08:47:19;;;;;;;10.80;3.20;;;;;;;-145.69;100.00;73317.09;5073422;28;20673;-77
2022/01/30 08:49:46;;;;;;;12.13;3.17;;;;;;;-145.69;100.00;73309.13;5073621;28;20206;-77
2022/01/30 08:52:16;;;;;;;7.63;3.30;;;;;;;-145.69;100.00;73309.13;5073876;28;20203;-76
2022/01/30 08:54:46;;;;;;;9.00;2.73;;;;;;;-145.69;100.00;73301.19;5073708;28;20199;-77
2022/01/30 08:57:19;;;;;;;11.37;3.17;;;;;;;-145.69;100.00;73273.31;5073385;28;20586;-77
2022/01/30 08:59:51;;;;;;;6.10;2.60;;;;;;;-145.69;100.00;73265.34;5073242;28;20222;-77
2022/01/30 09:02:26;;;;;;;6.87;2.70;;;;;;;-145.69;100.00;73263.34;5071988;28;20621;-77
2022/01/30 09:04:52;;;;;;;7.03;2.80;;;;;;;-145.69;100.00;73291.22;5073258;28;20202;-77
2022/01/30 09:07:20;;;;;;;12.37;2.77;;;;;;;-145.69;100.00;73281.25;5073415;28;20202;-77
2022/01/30 09:09:55;;;;;;;6.83;2.27;;;;;;;-145.69;100.00;73277.28;5072266;28;20210;-77
2022/01/30 09:12:22;;;;;;;10.43;2.30;;;;;;;-145.69;100.00;73259.38;5073406;28;20202;-77
2022/01/30 09:14:53;;;;;;;11.33;2.80;;;;;;;-145.69;100.00;73243.44;5073128;28;20235;-77
2022/01/30 09:17:22;;;;;;;11.37;3.27;;;;;;;-145.69;100.00;73237.47;5073444;28;20264;-77
2022/01/30 09:19:49;;;;;;;13.00;2.50;;;;;;;-145.69;100.00;73205.63;5073430;28;20238;-77
2022/01/30 09:22:18;;;;;;;8.80;1.87;;;;;;;-145.69;100.00;73205.63;5072592;28;20235;-76
2022/01/30 09:24:45;;;;;;;8.63;2.17;;;;;;;-145.69;100.00;73235.47;5073228;28;20199;-77
2022/01/30 09:27:19;;;;;;;11.20;2.20;;;;;;;-145.69;100.00;73243.44;5073099;28;20289;-77
2022/01/30 09:29:46;;;;;;;12.87;2.27;;;;;;;-145.69;100.00;73259.38;5072880;28;20281;-78
2022/01/30 09:32:21;;;;;;;8.70;2.20;;;;;;;-145.69;100.00;73239.47;5073268;28;20221;-76
2022/01/30 09:34:48;;;;;;;7.07;1.70;;;;;;;-145.69;100.00;73253.41;5073072;28;20210;-77
2022/01/30 09:37:17;;;;;;;11.10;2.50;;;;;;;-145.69;100.00;73247.41;5073494;28;20202;-76
2022/01/30 09:39:44;;;;;;;6.57;1.70;;;;;;;-145.69;100.00;73249.41;5072566;28;20309;-77
2022/01/30 09:42:11;;;;;;;10.70;1.87;;;;;;;-145.69;100.00;73241.44;5073327;28;20202;-76
2022/01/30 09:44:44;;;;;;;14.50;3.30;;;;;;;-145.69;98.29;73261.34;5073047;28;20245;-77
2022/01/30 09:47:12;;;;;;;10.33;1.90;;;;;;;-145.69;100.00;73257.38;5073156;28;20245;-77
2022/01/30 09:49:44;;;;;;;5.83;1.70;;;;;;;-145.69;100.00;73259.38;5073011;28;20230;-77
2022/01/30 09:52:26;;;;;;;9.20;2.30;;;;;;;-145.69;100.00;73255.38;5072639;28;20539;-77
2022/01/30 09:55:02;;;;;;;9.10;2.23;;;;;;;-145.69;100.00;73257.38;5072931;28;20195;-76
2022/01/30 09:57:29;;;;;;;9.13;2.03;;;;;;;-145.69;100.00;73249.41;5072978;28;20207;-77
2022/01/30 09:59:56;;;;;;;14.27;2.13;;;;;;;-145.69;100.00;73231.50;5072515;28;20266;-77
2022/01/30 10:02:25;;;;;;;9.03;1.80;;;;;;;-145.69;100.00;73245.44;5072728;28;20206;-77
2022/01/30 10:04:54;;;;;;;10.90;2.07;;;;;;;-145.69;100.00;73225.53;5072624;28;20205;-76
2022/01/30 10:07:21;;;;;;;9.30;1.80;;;;;;;-145.69;99.91;73237.47;5055326;28;20633;-76
2022/01/30 10:09:50;;;;;;;15.50;2.30;;;;;;;-145.69;98.25;73217.56;5052435;28;20239;-77
2022/01/30 10:12:19;;;;;;;10.77;2.07;;;;;;;-145.69;95.29;73217.56;5072129;28;20199;-75
2022/01/30 10:15:00;;;;;;;11.97;1.83;;;;;;;-145.69;96.91;73231.50;5072309;28;20312;-76
2022/01/30 10:17:36;;;;;;;17.90;2.50;;;;;;;-145.69;95.39;73237.47;5071312;28;20206;-76
2022/01/30 10:20:11;;;;;;;11.80;1.90;;;;;;;-145.69;96.65;73251.41;5072380;28;20238;-76
2022/01/30 10:22:51;;;;;;;14.07;1.77;;;;;;;-145.69;97.16;73261.34;5075285;28;20205;-76
2022/01/30 10:25:26;;;;;;;12.07;2.53;;;;;;;-145.69;94.72;73249.41;5076092;28;20198;-77
2022/01/30 10:28:06;;;;;;;8.70;1.53;;;;;;;-145.69;94.03;73245.44;5075911;28;20191;-77
2022/01/30 10:30:45;;;;;;;6.57;1.97;;;;;;;-145.69;93.67;73233.50;5076408;28;20203;-76
2022/01/30 10:33:20;;;;;;;9.80;1.67;;;;;;;-145.69;92.06;73247.41;5076105;28;20226;-77
2022/01/30 10:35:55;;;;;;;9.33;1.70;;;;;;;-145.69;91.09;73249.41;5075678;28;20195;-76
2022/01/30 10:38:27;;;;;;;12.77;2.20;;;;;;;-145.69;94.51;73249.41;5075949;28;20190;-77
2022/01/30 10:40:55;;;;;;;11.83;1.77;;;;;;;-145.69;88.36;73233.50;5075965;28;20195;-77
2022/01/30 10:43:24;;;;;;;5.70;2.07;;;;;;;-145.69;89.75;73253.41;5076031;28;20206;-76
2022/01/30 10:45:50;;;;;;;13.40;2.00;;;;;;;-145.69;88.14;73273.31;5057116;28;20202;-76
2022/01/30 10:48:21;;;;;;;7.27;2.30;;;;;;;-145.69;88.80;73281.25;5075839;28;20576;-77
2022/01/30 10:50:50;;;;;;;14.00;2.47;;;;;;;-145.69;88.25;73295.19;5075898;28;20187;-76
2022/01/30 10:53:25;;;;;;;15.27;2.37;;;;;;;-145.69;86.30;73273.31;5075934;28;20294;-76
2022/01/30 10:55:57;;;;;;;7.03;1.83;;;;;;;-145.69;87.80;73269.31;5075514;28;20285;-78
2022/01/30 10:58:26;;;;;;;11.00;2.03;;;;;;;-145.69;85.67;73261.34;5075417;28;20198;-77
2022/01/30 11:00:54;;;;;;;13.60;2.13;;;;;;;-145.69;87.16;73253.41;5075462;28;20564;-76
2022/01/30 11:03:39;;;;;;;11.70;2.10;;;;;;;-145.69;84.86;73271.31;5076025;28;20202;-77
2022/01/30 11:06:10;;;;;;;8.57;2.20;;;;;;;-145.69;87.09;73265.34;5071284;28;20195;-77
2022/01/30 11:08:40;;;;;;;14.20;2.10;;;;;;;-145.69;86.85;73263.34;5055563;28;20250;-77
2022/01/30 11:11:18;;;;;;;12.87;2.67;;;;;;;-145.69;84.71;73251.41;5065344;28;20195;-77
2022/01/30 11:13:59;;;;;;;9.27;1.87;;;;;;;-145.69;85.64;73257.38;5075249;28;20284;-76
2022/01/30 11:19:09;;;;;;;15.47;2.13;;;;;;;-145.69;82.72;73239.47;5075575;28;20319;-76
2022/01/30 11:21:40;;;;;;;8.77;2.23;;;;;;;-145.69;85.57;73269.31;5075600;28;20221;-76
2022/01/30 11:24:08;;;;;;;9.93;2.20;;;;;;;-145.69;85.83;73269.31;5074964;28;20202;-76
2022/01/30 11:26:42;;;;;;;9.80;1.93;;;;;;;-145.69;86.61;73245.44;5075369;28;20195;-77
2022/01/30 11:29:14;;;;;;;6.50;1.53;;;;;;;-145.69;88.43;73261.34;5074927;28;20210;-76
2022/01/30 11:31:41;;;;;;;8.43;2.30;;;;;;;-145.69;85.75;73263.34;5075332;28;20203;-76
2022/01/30 11:34:10;;;;;;;8.93;2.13;;;;;;;-145.69;83.97;73277.28;5073854;28;20203;-76
2022/01/30 11:36:41;;;;;;;8.80;2.10;;;;;;;-145.69;85.36;73297.19;5074731;28;20515;-76
2022/01/30 11:39:14;;;;;;;13.73;2.30;;;;;;;-145.69;84.02;73285.25;5074901;28;20701;-77
2022/01/30 11:42:14;;;;;;;8.10;1.97;;;;;;;-145.69;83.56;73243.44;5075165;28;20210;-76
2022/01/30 11:44:41;;;;;;;9.90;1.93;;;;;;;-145.69;82.92;73259.38;5074802;28;20203;-77
2022/01/30 11:47:25;;;;;;;7.93;1.97;;;;;;;-145.69;83.43;73257.38;5074322;28;20628;-76
2022/01/30 11:49:55;;;;;;;6.37;2.20;;;;;;;-145.69;83.88;73239.47;5073909;28;20205;-76
2022/01/30 11:52:46;;;;;;;9.97;1.80;;;;;;;-145.69;82.61;73213.56;5072503;28;20203;-76
2022/01/30 11:55:41;;;;;;;8.97;1.77;;;;;;;-145.69;83.29;73209.59;5074678;28;20648;-76
2022/01/30 11:58:28;;;;;;;11.93;1.90;;;;;;;-145.69;82.42;73237.47;5074468;28;20701;-77